map of SBD home
SBD - Airport
Location
City:  San Bernardino, California, United States
Name:San Bernardino International Airport
ICAO:KSBD
IATA:SBD
FAA LID:SBD

Details
Type:Airport (Part 139 Class I)
Use:Public/Civil, International (customs landing rights)
Latitude:34°05'43"N (34.095361)
Longitude:117°14'06"W (-117.234888)
Datum:WGS 1984
Elevation:1159 ft (353 m)
Variation:11.70°E (WMM2015 magnetic declination)
-0.09° annual change
Runways:1
Longest:10000 × 200 ft (3048 × 61 m), paved

Time
Time Zone:UTC-8 (DST-7)
Local Time:

Weather
METAR:KSBD 160721Z AUTO 00000KT 10SM CLR 09/00 A3013 RMK AO2 T00901005
TAF:KSBD 160520Z 1606/1706 VRB05KT P6SM SKC

Related Locations
Nearby:
Farthest:ZSE: 11446 mi / 18421 km
St-Pierre (St-Pierre de la Réunion) [Pierrefonds], RE

Find:

   beyond  
but within

Other Information
Maps:
NOTAMs:
Links:
Sources:

  
  • flag of United States
  • flag of California
  

Airport Diagram

Airport diagram for SBD

Airport diagram PDF

Sectional Chart

Flight Planning
at skyvector.com

Satellite Image

Google Maps Satellite view

 

Copyright © 2004-2018 Karl L. Swartz. All rights reserved.
The Great Circle Mapper name and logo are trademarks of the Great Circle Mapper.
All other trademarks mentioned herein belong to their respective owners.
Please see credits for attibutions and further copyright information.

  Follow gcmap on Facebook Follow gcmap on Twitter Follow gcmap on Google+ GCmap on LinkedIn

hCard Microformat

Geo Microformat